Flight Track Log - Related Links

Times and Time Zones

All times are in EDT time to prevent confusion due to time zone crossing. See the AWI3970 flight status page for this flight to view local times or setup timezone preferences in your user account.

Time Position Orientation Groundspeed Altitude Reporting Facility
EDT Latitude Longitude Course Direction KTS MPH feet Rate Location/Type
Sat 07:22:07 AM 37.9792 -84.6397 98° East 246 283 3,200  Level Indianapolis Center
Sat 07:23:00 AM 38.0000 -84.1993 90° East  Level FlightAware Approximate
Sat 07:23:08 AM 37.9639 -84.5619 104° East 234 269 4,800  Level Indianapolis Center
Sat 07:24:00 AM 37.9973 -84.0643 96° East  Level FlightAware Approximate
Sat 07:24:09 AM 37.9622 -84.4583 91° East 277 319 6,800  Level Indianapolis Center
Sat 07:25:00 AM 37.9869 -83.9297 96° East  Level FlightAware Approximate
Sat 07:25:10 AM 37.9572 -84.3525 93° East 294 338 8,900  Level Indianapolis Center
Sat 07:26:00 AM 37.9833 -83.7947 90° East  Level FlightAware Approximate
Sat 07:26:11 AM 37.9536 -84.2431 92° East 305 351 10,700  Level Indianapolis Center
Sat 07:27:00 AM 37.9710 -83.6650 98° East  Level FlightAware Approximate
Sat 07:27:13 AM 37.9478 -84.1278 94° East 319 367 12,700  Level Indianapolis Center
Sat 07:28:14 AM 37.9422 -84.0069 93° East 334 384 14,500 1,721 Climbing Indianapolis Center
Sat 07:29:15 AM 37.9356 -83.8819 94° East 346 398 16,200 1,770 Climbing Indianapolis Center
Sat 07:30:16 AM 37.9303 -83.7325 93° East 357 411 18,100 1,574 Climbing Indianapolis Center
Sat 07:31:17 AM 37.9247 -83.5994 93° East 369 425 19,400 1,279 Climbing Indianapolis Center
Sat 07:32:18 AM 37.9189 -83.4669 93° East 372 428 20,700 1,131 Climbing Indianapolis Center
Sat 07:33:19 AM 37.9117 -83.3308 94° East 380 437 21,700 984 Climbing Indianapolis Center
Sat 07:34:20 AM 37.9047 -83.1919 94° East 389 448 22,700 984 Climbing Indianapolis Center
Sat 07:35:21 AM 37.8983 -83.0486 93° East 397 457 23,700 984 Climbing Indianapolis Center
Sat 07:36:22 AM 37.8894 -82.9036 94° East 406 467 24,700 927 Climbing Indianapolis Center
Sat 07:37:24 AM 37.8814 -82.7592 94° East 407 468 25,600 829 Climbing Indianapolis Center
Sat 07:38:25 AM 37.8736 -82.6100 94° East 417 480 26,400 787 Climbing Indianapolis Center
Sat 07:39:26 AM 37.8656 -82.4611 94° East 418 481 27,200 738 Climbing Indianapolis Center
Sat 07:40:27 AM 37.8569 -82.3081 94° East 427 491 27,900 738 Climbing Indianapolis Center
Sat 07:41:28 AM 37.8472 -82.1506 94° East 433 498 28,700 738 Climbing Indianapolis Center
Sat 07:42:29 AM 37.8369 -81.9969 95° East 435 501 29,400 787 Climbing Indianapolis Center
Sat 07:43:30 AM 37.8286 -81.8442 94° East 438 504 30,300 787 Climbing Indianapolis Center
Sat 07:44:31 AM 37.8158 -81.6664 95° East 438 504 31,000 341 Climbing Indianapolis Center
Sat 07:45:33 AM 37.8069 -81.5114 94° East 438 504 31,000  Level Indianapolis Center
Sat 07:46:34 AM 37.7950 -81.3553 95° East 438 504 31,000  Level Indianapolis Center
Sat 07:47:35 AM 37.7861 -81.2006 94° East 439 505 31,000  Level Indianapolis Center
Sat 07:48:36 AM 37.7817 -81.0497 92° East 437 503 31,000  Level Indianapolis Center
Sat 07:49:37 AM 37.7950 -80.8958 84° East 438 504 31,000  Level Indianapolis Center
Sat 07:50:39 AM 37.8067 -80.7456 84° East 436 502 31,000  Level Indianapolis Center
Sat 07:51:40 AM 37.8153 -80.5953 86° East 436 502 31,000  Level Indianapolis Center
Sat 07:52:41 AM 37.8253 -80.4414 85° East 436 502 31,000  Level Indianapolis Center
Sat 07:53:42 AM 37.8344 -80.2908 86° East 435 501 31,000  Level Indianapolis Center
Sat 07:54:43 AM 37.8439 -80.1375 85° East 435 501 31,000  Level Indianapolis Center
Sat 07:55:45 AM 37.8531 -79.9847 86° East 435 501 31,000  Level Indianapolis Center
Sat 07:56:46 AM 37.8622 -79.8308 86° East 435 501 31,000  Level Indianapolis Center
Sat 07:57:47 AM 37.8719 -79.6769 85° East 435 501 31,000  Level Indianapolis Center
Sat 07:58:48 AM 37.8828 -79.4892 86° East 438 504 31,000  Level Indianapolis Center
Sat 08:00:09 AM 37.8922 -79.3033 86° East 440 506 31,000  Level Washington Center
Sat 08:01:14 AM 37.8997 -79.1467 86° East 440 506 31,000  Level Washington Center
Sat 08:02:15 AM 37.9156 -78.9919 83° East 441 507 31,000  Level Washington Center
Sat 08:03:15 AM 37.9383 -78.8089 81° East 440 506 31,000  Level Washington Center
Sat 08:04:19 AM 37.9564 -78.6567 81° East 441 507 31,000 -484 Level Washington Center
Sat 08:05:19 AM 37.9736 -78.4967 82° East 447 514 30,000 -968 Descending Washington Center
Sat 08:06:23 AM 37.9917 -78.3417 82° East 448 516 29,000 -484 Descending Washington Center
Sat 08:07:23 AM 38.0108 -78.1814 81° East 437 503 29,000  Level Washington Center
Sat 08:08:24 AM 38.0594 -78.0631 62° Northeast 419 482 29,000  Level Washington Center
Sat 08:09:28 AM 38.1347 -77.9131 57° Northeast 424 488 29,000  Level Washington Center
Sat 08:10:28 AM 38.1975 -77.7869 58° Northeast 424 488 29,000  Level Washington Center
Sat 08:11:32 AM 38.2603 -77.6600 58° Northeast 424 488 29,000  Level Washington Center
Sat 08:12:32 AM 38.3217 -77.5339 58° Northeast 424 488 29,000  Level Washington Center
Sat 08:13:36 AM 38.3842 -77.4075 58° Northeast 424 488 29,000  Level Washington Center
Sat 08:14:36 AM 38.4464 -77.2814 58° Northeast 423 487 29,000  Level Washington Center
Sat 08:15:40 AM 38.5206 -77.1289 58° Northeast 424 488 29,000 -384 Level Washington Center
Sat 08:16:41 AM 38.5822 -77.0006 58° Northeast 424 488 28,200 -1,392 Descending Washington Center
Sat 08:17:45 AM 38.6444 -76.8736 58° Northeast 424 488 26,100 -1,968 Descending Washington Center
Sat 08:18:46 AM 38.7014 -76.7497 59° Northeast 408 470 24,100 -2,016 Descending Washington Center
Sat 08:19:47 AM 38.7339 -76.6058 74° East 421 484 22,000 -2,048 Descending Washington Center
Sat 08:20:52 AM 38.7725 -76.4281 74° East 429 494 19,800 -1,920 Descending Washington Center
Sat 08:21:52 AM 38.8011 -76.2869 75° East 414 476 18,000 -1,597 Descending Washington Center
Sat 08:22:56 AM 38.8267 -76.1631 75° East 412 474 16,500 -1,452 Descending Washington Center
Sat 08:23:56 AM 38.8617 -75.9906 75° East 413 475 15,000 -720 Descending Washington Center
Sat 08:25:01 AM 38.8914 -75.8539 74° East 406 467 15,000  Level Washington Center
Sat 08:26:01 AM 38.9742 -75.7622 41° Northeast 397 457 15,000 -744 Level Washington Center
Sat 08:27:02 AM 39.0614 -75.6814 36° Northeast 391 450 13,500 -1,872 Descending Washington Center
Sat 08:28:06 AM 39.1606 -75.6678 North 355 409 11,100 -1,680 Descending Washington Center
Sat 08:29:07 AM 39.2678 -75.6558 North 321 369 10,000 -912 Descending Washington Center
Sat 08:30:11 AM 39.3286 -75.5839 42° Northeast 304 350 9,200 -960 Descending Washington Center
Sat 08:31:12 AM 39.3847 -75.5033 48° Northeast 305 351 8,000 -624 Descending Washington Center
Sat 08:32:16 AM 39.4394 -75.4250 48° Northeast 296 341 7,900 -919 Descending Washington Center
Sat 08:33:16 AM 39.4919 -75.3461 49° Northeast 292 336 6,100 -1,438 Descending Washington Center
Sat 08:34:17 AM 39.5458 -75.2736 46° Northeast 285 328 5,000 -1,048 Descending Washington Center
Sat 08:35:22 AM 39.6106 -75.1853 46° Northeast 283 326 3,900 -1,462 Descending Washington Center
Sat 08:36:16 AM 39.6833 -75.1500 20° North 266 306 2,100 -1,000 Descending Philadelphia TRACON
Sat 08:37:10 AM 39.7333 -75.1500 360° North 157 181 2,100 -105 Level Philadelphia TRACON
Sat 08:38:10 AM 39.7667 -75.1833 322° Northwest 154 177 1,900 -313 Descending Philadelphia TRACON
Sat 08:39:05 AM 39.8000 -75.2000 339° North 153 176 1,500 -626 Descending Philadelphia TRACON
Sat 08:40:05 AM 39.8500 -75.2167 346° North 154 177 700 -800 Descending Philadelphia TRACON
Sat 08:43:00 AM 39.8667 -75.2333 334° Northwest  Level FlightAware Approximate

Login

Don't have an account? Register now (free) for customized features, flight alerts, and more!